Map

Track Data

SID SEASON NUMBER BASIN SUBBASIN NAME ISO_TIME NATURE LAT LON WMO_WIND WMO_PRES WMO_AGENCY TRACK_TYPE DIST2LAND LANDFALL IFLAG USA_AGENCY USA_ATCF_ID USA_LAT USA_LON USA_RECORD USA_STATUS USA_WIND USA_PRES USA_SSHS USA_R34_NE USA_R34_SE USA_R34_SW USA_R34_NW USA_R50_NE USA_R50_SE USA_R50_SW USA_R50_NW USA_R64_NE USA_R64_SE USA_R64_SW USA_R64_NW USA_POCI USA_ROCI USA_RMW USA_EYE TOKYO_LAT TOKYO_LON TOKYO_GRADE TOKYO_WIND TOKYO_PRES TOKYO_R50_DIR TOKYO_R50_LONG TOKYO_R50_SHORT TOKYO_R30_DIR TOKYO_R30_LONG TOKYO_R30_SHORT TOKYO_LAND CMA_LAT CMA_LON CMA_CAT CMA_WIND CMA_PRES HKO_LAT HKO_LON HKO_CAT HKO_WIND HKO_PRES NEWDELHI_LAT NEWDELHI_LON NEWDELHI_GRADE NEWDELHI_WIND NEWDELHI_PRES NEWDELHI_CI NEWDELHI_DP NEWDELHI_POCI REUNION_LAT REUNION_LON REUNION_TYPE REUNION_WIND REUNION_PRES REUNION_TNUM REUNION_CI REUNION_RMW REUNION_R34_NE REUNION_R34_SE REUNION_R34_SW REUNION_R34_NW REUNION_R50_NE REUNION_R50_SE REUNION_R50_SW REUNION_R50_NW REUNION_R64_NE REUNION_R64_SE REUNION_R64_SW REUNION_R64_NW BOM_LAT BOM_LON BOM_TYPE BOM_WIND BOM_PRES BOM_TNUM BOM_CI BOM_RMW BOM_R34_NE BOM_R34_SE BOM_R34_SW BOM_R34_NW BOM_R50_NE BOM_R50_SE BOM_R50_SW BOM_R50_NW BOM_R64_NE BOM_R64_SE BOM_R64_SW BOM_R64_NW BOM_ROCI BOM_POCI BOM_EYE BOM_POS_METHOD BOM_PRES_METHOD NADI_LAT NADI_LON NADI_CAT NADI_WIND NADI_PRES WELLINGTON_LAT WELLINGTON_LON WELLINGTON_WIND WELLINGTON_PRES DS824_LAT DS824_LON DS824_STAGE DS824_WIND DS824_PRES TD9636_LAT TD9636_LON TD9636_STAGE TD9636_WIND TD9636_PRES TD9635_LAT TD9635_LON TD9635_WIND TD9635_PRES TD9635_ROCI NEUMANN_LAT NEUMANN_LON NEUMANN_CLASS NEUMANN_WIND NEUMANN_PRES MLC_LAT MLC_LON MLC_CLASS MLC_WIND MLC_PRES USA_GUST BOM_GUST BOM_GUST_PER REUNION_GUST REUNION_GUST_PER USA_SEAHGT USA_SEARAD_NE USA_SEARAD_SE USA_SEARAD_SW USA_SEARAD_NW STORM_SPEED STORM_DIR
1984230N09210 1984 62 EP CP KELI 1984-08-16 18:00:00 TS 9.22000 -150.220 30 hurdat_epa main 1237 1197 O_________O___ hurdat_epa CP011984 9.20000 -150.100 TD 30 -1 9.20000 -150.100 1 30 12 278
1984230N09210 1984 62 EP CP KELI 1984-08-16 21:00:00 TS 9.29974 -150.803 main 1197 1160 P_________P___ CP011984 9.29265 -150.722 TD 32 -1 9.29075 -150.726 1 32 12 279
1984230N09210 1984 62 EP CP KELI 1984-08-17 00:00:00 TS 9.40000 -151.440 35 hurdat_epa main 1160 1121 O_________O___ hurdat_epa CP011984 9.40000 -151.400 TS 35 0 9.40000 -151.400 2 35 14 280
1984230N09210 1984 62 EP CP KELI 1984-08-17 03:00:00 TS 9.53639 -152.169 main 1117 1073 P_________P___ CP011984 9.53491 -152.170 TS 40 0 9.54221 -152.156 2 37 15 281
1984230N09210 1984 62 EP CP KELI 1984-08-17 06:00:00 TS 9.70251 -152.956 45 hurdat_epa main 1070 1030 O_________P___ hurdat_epa CP011984 9.70000 -153.000 TS 45 0 9.71252 -152.979 2 40 16 283
1984230N09210 1984 62 EP CP KELI 1984-08-17 09:00:00 TS 9.88261 -153.741 main 1030 993 P_________P___ CP011984 9.89234 -153.843 TS 45 0 9.90151 -153.836 2 42 16 283
1984230N09210 1984 62 EP CP KELI 1984-08-17 12:00:00 TS 10.0800 -154.560 45 hurdat_epa main 992 963 O_________O___ hurdat_epa CP011984 10.1000 -154.700 TS 45 0 10.1000 -154.700 2 45 17 284
1984230N09210 1984 62 EP CP KELI 1984-08-17 15:00:00 TS 10.2870 -155.429 main 963 941 P_________P___ CP011984 10.2998 -155.558 TS 47 0 10.2927 -155.531 2 48 18 284
1984230N09210 1984 62 EP CP KELI 1984-08-17 18:00:00 TS 10.4985 -156.312 50 hurdat_epa main 942 928 O_________P___ hurdat_epa CP011984 10.5000 -156.400 TS 50 0 10.4926 -156.360 2 52 18 284
1984230N09210 1984 62 EP CP KELI 1984-08-17 21:00:00 TS 10.6991 -157.166 main 931 923 P_________P___ CP011984 10.6997 -157.208 TS 55 0 10.6962 -157.185 2 56 17 284
1984230N09210 1984 62 EP CP KELI 1984-08-18 00:00:00 TS 10.9000 -158.000 60 hurdat_epa main 928 924 O_________O___ hurdat_epa CP011984 10.9000 -158.000 TS 60 0 10.9000 -158.000 2 60 17 284
1984230N09210 1984 62 EP CP KELI 1984-08-18 03:00:00 TS 11.1142 -158.815 main 934 931 P_________P___ CP011984 11.0998 -158.800 TS 65 1 11.0997 -158.803 2 65 16 285
1984230N09210 1984 62 EP CP KELI 1984-08-18 06:00:00 TS 11.3200 -159.620 70 hurdat_epa main 948 947 O_________O___ hurdat_epa CP011984 11.3000 -159.600 HU 70 1 11.3000 -159.600 3 70 16 284
1984230N09210 1984 62 EP CP KELI 1984-08-18 09:00:00 TS 11.5042 -160.426 main 969 969 P_________P___ CP011984 11.5147 -160.393 HU 72 1 11.5120 -160.400 3 72 16 282
1984230N09210 1984 62 EP CP KELI 1984-08-18 12:00:00 TS 11.6600 -161.240 75 hurdat_epa main 998 998 O_________O___ hurdat_epa CP011984 11.7000 -161.200 HU 75 1 11.7000 -161.200 4 75 17 280
1984230N09210 1984 62 EP CP KELI 1984-08-18 15:00:00 TS 11.7847 -162.094 main 1049 1049 P_________P___ CP011984 11.8224 -162.058 HU 77 1 11.8137 -162.024 4 76 17 277
1984230N09210 1984 62 EP CP KELI 1984-08-18 18:00:00 TS 11.8761 -162.930 80 hurdat_epa main 1099 1099 O_________P___ hurdat_epa CP011984 11.9000 -162.900 HU 80 1 11.8807 -162.849 4 77 16 275
1984230N09210 1984 62 EP CP KELI 1984-08-18 21:00:00 TS 11.9363 -163.710 main 1160 1160 P_________P___ CP011984 11.9498 -163.688 HU 80 1 11.9323 -163.648 4 78 15 275
1984230N09210 1984 62 EP CP KELI 1984-08-19 00:00:00 TS 12.0000 -164.420 80 hurdat_epa main 1208 1208 O_________O___ hurdat_epa CP011984 12.0000 -164.400 HU 80 1 12.0000 -164.400 4 80 13 277
1984230N09210 1984 62 EP CP KELI 1984-08-19 03:00:00 TS 12.0916 -165.054 main 1242 1242 P_________P___ CP011984 12.0772 -165.015 HU 80 1 12.0994 -165.108 4 80 12 281
1984230N09210 1984 62 EP CP KELI 1984-08-19 06:00:00 TS 12.2249 -165.653 80 hurdat_epa main 1262 1258 O_________P___ hurdat_epa CP011984 12.2000 -165.600 HU 80 1 12.2244 -165.763 4 80 13 284
1984230N09210 1984 62 EP CP KELI 1984-08-19 09:00:00 TS 12.4050 -166.297 main 1276 1272 P_________P___ CP011984 12.3701 -166.272 HU 80 1 12.3872 -166.361 4 80 13 289
1984230N09210 1984 62 EP CP KELI 1984-08-19 12:00:00 TS 12.6400 -166.900 80 hurdat_epa main 1293 1284 O_________O___ hurdat_epa CP011984 12.6000 -166.900 HU 80 1 12.6000 -166.900 4 80 12 295
1984230N09210 1984 62 EP CP KELI 1984-08-19 15:00:00 TS 12.9172 -167.408 main 1298 1293 P_________P___ CP011984 12.8773 -167.388 HU 82 1 12.8618 -167.391 4 82 11 303
1984230N09210 1984 62 EP CP KELI 1984-08-19 18:00:00 TS 13.2348 -167.845 85 hurdat_epa main 1298 1294 O_________P___ hurdat_epa CP011984 13.2000 -167.800 HU 85 2 13.1742 -167.825 4 85 10 309
1984230N09210 1984 62 EP CP KELI 1984-08-19 21:00:00 TS 13.5688 -168.242 main 1293 1291 P_________P___ CP011984 13.5424 -168.200 HU 87 2 13.5245 -168.222 4 87 10 312
1984230N09210 1984 62 EP CP KELI 1984-08-20 00:00:00 TS 13.9200 -168.620 90 hurdat_epa main 1298 1297 O_________O___ hurdat_epa CP011984 13.9000 -168.600 HU 90 2 13.9000 -168.600 4 90 10 312
1984230N09210 1984 62 EP CP KELI 1984-08-20 03:00:00 TS 14.2670 -169.044 main 1298 1298 P_________P___ CP011984 14.2351 -169.065 HU 95 2 14.2946 -169.018 4 90 11 312
1984230N09210 1984 62 EP CP KELI 1984-08-20 06:00:00 TS 14.6415 -169.443 100 hurdat_epa main 1307 1301 O_________P___ hurdat_epa CP011984 14.6000 -169.500 HU 100 3 14.7075 -169.417 4 90 11 318
1984230N09210 1984 62 EP CP KELI 1984-08-20 09:00:00 TS 15.0763 -169.785 main 1305 1296 P_________P___ CP011984 15.0499 -169.845 HU 95 2 15.1166 -169.783 4 90 11 325
1984230N09210 1984 62 EP CP KELI 1984-08-20 12:00:00 TS 15.5000 -170.060 90 hurdat_epa main 1305 1294 O_________O___ hurdat_epa CP011984 15.5000 -170.100 HU 90 2 15.5000 -170.100 4 90 9 330
1984230N09210 1984 62 EP CP KELI 1984-08-20 15:00:00 TS 15.8561 -170.259 main 1297 1291 P_________P___ CP011984 15.8799 -170.258 HU 82 1 15.8608 -170.351 4 82 8 332
1984230N09210 1984 62 EP CP KELI 1984-08-20 18:00:00 TS 16.1579 -170.431 75 hurdat_epa main 1288 1288 O_________P___ hurdat_epa CP011984 16.2000 -170.400 HU 75 1 16.1895 -170.553 4 75 7 327
1984230N09210 1984 62 EP CP KELI 1984-08-20 21:00:00 TS 16.4242 -170.647 main 1294 1294 P_________P___ CP011984 16.4801 -170.650 HU 67 1 16.4734 -170.729 4 67 6 320
1984230N09210 1984 62 EP CP KELI 1984-08-21 00:00:00 TS 16.6400 -170.860 60 hurdat_epa main 1311 1306 O_________O___ hurdat_epa CP011984 16.7000 -170.900 TS 60 0 16.7000 -170.900 2 60 5 318
1984230N09210 1984 62 EP CP KELI 1984-08-21 03:00:00 TS 16.8235 -171.026 main 1310 1310 P_________P___ CP011984 16.8799 -171.050 TS 52 0 16.8777 -171.088 2 55 5 315
1984230N09210 1984 62 EP CP KELI 1984-08-21 06:00:00 TS 16.9595 -171.196 45 hurdat_epa main 1318 1318 O_________P___ hurdat_epa CP011984 17.0000 -171.200 TS 45 0 16.9973 -171.278 2 50 4 302
1984230N09210 1984 62 EP CP KELI 1984-08-21 09:00:00 TS 17.0571 -171.409 main 1332 1332 P_________P___ CP011984 17.0725 -171.435 TS 42 0 17.0682 -171.479 2 45 5 289
1984230N09210 1984 62 EP CP KELI 1984-08-21 12:00:00 TS 17.1158 -171.668 40 hurdat_epa main 1361 1361 O_________O___ hurdat_epa CP011984 17.1000 -171.700 TS 40 0 17.1000 -171.700 2 40 5 280
1984230N09210 1984 62 EP CP KELI 1984-08-21 15:00:00 TS 17.1437 -171.939 main 1380 1380 P_________P___ CP011984 17.1149 -171.943 TS 37 0 17.1015 -171.949 2 37 5 272
1984230N09210 1984 62 EP CP KELI 1984-08-21 18:00:00 TS 17.1340 -172.220 35 hurdat_epa main 1409 1409 O_________P___ hurdat_epa CP011984 17.1000 -172.200 TS 35 0 17.0805 -172.220 2 35 5 260
1984230N09210 1984 62 EP CP KELI 1984-08-21 21:00:00 TS 17.0542 -172.494 main 1438 1438 P_________P___ CP011984 17.0576 -172.490 TS 32 -1 17.0441 -172.506 2 32 6 256
1984230N09210 1984 62 EP CP KELI 1984-08-22 00:00:00 TS 17.0000 -172.800 30 hurdat_epa main 1472 O_________O___ hurdat_epa CP011984 17.0000 -172.800 TD 30 -1 17.0000 -172.800 1 30 6 260

About IBTrACS Database

This database is a web-friendly format of International Best Track Archive for Climate Stewardship (IBTrACS), a global best track data archive curated by NOAA dating back to 1842.

Updated: 2021-11-26